Time;durP1;ratioP1;P1;durP2;ratioP2;P2;SDS_P1;SDS_P2;PMS_P1;PMS_P2;Temp;Humidity;BMP_temperature;BMP_pressure;BME280_temperature;BME280_humidity;BME280_pressure;Samples;Min_cycle;Max_cycle;Signal;HPM_P1;HPM_P2
2024/03/07 00:01:28;;;;;;;1.20;0.43;;;;;;;;;;5043764;28;20033;-79
2024/03/07 00:03:55;;;;;;;0.20;0.08;;;;;;;;;;5028091;28;20047;-79
2024/03/07 00:06:20;;;;;;;0.80;0.30;;;;;;;;;;5026447;28;20041;-80
2024/03/07 00:08:48;;;;;;;0.20;0.10;;;;;;;;;;5026878;28;20089;-80
2024/03/07 00:11:14;;;;;;;0.20;0.03;;;;;;;;;;5044708;28;20040;-80
2024/03/07 00:13:40;;;;;;;0.20;0.10;;;;;;;;;;5101521;23;20088;-87
2024/03/07 00:16:27;;;;;;;0.30;0.30;;;;;;;;;;5062150;28;20393;-86
2024/03/07 00:18:53;;;;;;;0.50;0.30;;;;;;;;;;5075774;28;20528;-85
2024/03/07 00:21:19;;;;;;;0.20;0.10;;;;;;;;;;5059900;28;20040;-87
2024/03/07 00:23:45;;;;;;;0.35;0.25;;;;;;;;;;5040768;28;20108;-87
2024/03/07 00:26:11;;;;;;;0.30;0.30;;;;;;;;;;5035227;28;20091;-86
2024/03/07 00:28:40;;;;;;;0.20;0.17;;;;;;;;;;5034633;28;20060;-85
2024/03/07 00:31:07;;;;;;;0.43;0.43;;;;;;;;;;5036740;28;20091;-86
2024/03/07 00:33:33;;;;;;;0.20;0.10;;;;;;;;;;5035297;28;20076;-86
2024/03/07 00:35:59;;;;;;;0.50;0.43;;;;;;;;;;5037277;28;20043;-88
2024/03/07 00:38:26;;;;;;;0.20;0.10;;;;;;;;;;5032563;28;20123;-87
2024/03/07 00:41:04;;;;;;;1.20;0.75;;;;;;;;;;5037540;28;20101;-86
2024/03/07 00:43:36;;;;;;;0.20;0.20;;;;;;;;;;5046653;28;20101;-85
2024/03/07 00:46:02;;;;;;;0.20;0.20;;;;;;;;;;5051172;28;20040;-86
2024/03/07 00:48:29;;;;;;;0.20;0.10;;;;;;;;;;5039977;28;20127;-84
2024/03/07 00:51:09;;;;;;;0.50;0.25;;;;;;;;;;5039705;28;20103;-86
2024/03/07 00:53:41;;;;;;;0.38;0.38;;;;;;;;;;5038364;28;20045;-86
2024/03/07 00:56:10;;;;;;;0.20;0.13;;;;;;;;;;5052590;28;20127;-86
2024/03/07 00:58:47;;;;;;;0.20;0.00;;;;;;;;;;5034500;28;20047;-87
2024/03/07 01:01:28;;;;;;;0.20;0.10;;;;;;;;;;5030897;28;20241;-87
2024/03/07 01:03:59;;;;;;;0.20;0.10;;;;;;;;;;5037564;28;20032;-86
2024/03/07 01:06:28;;;;;;;0.20;0.05;;;;;;;;;;5032634;28;20037;-87
2024/03/07 01:09:00;;;;;;;0.20;0.10;;;;;;;;;;5034550;28;20047;-87
2024/03/07 01:11:32;;;;;;;0.20;0.10;;;;;;;;;;5043526;28;20049;-87
2024/03/07 01:14:02;;;;;;;0.20;0.10;;;;;;;;;;5032661;28;20044;-88
2024/03/07 01:16:40;;;;;;;0.20;0.10;;;;;;;;;;5031776;28;20055;-86
2024/03/07 01:19:10;;;;;;;0.20;0.10;;;;;;;;;;5028795;28;20033;-86
2024/03/07 01:21:41;;;;;;;0.20;0.20;;;;;;;;;;5034285;28;20040;-88
2024/03/07 01:24:20;;;;;;;0.20;0.10;;;;;;;;;;5035932;28;20462;-86
2024/03/07 01:26:46;;;;;;;0.30;0.30;;;;;;;;;;5037132;28;20044;-86
2024/03/07 01:29:17;;;;;;;0.20;0.17;;;;;;;;;;5036349;28;20072;-86
2024/03/07 01:31:46;;;;;;;0.20;0.10;;;;;;;;;;5032060;28;20044;-86
2024/03/07 01:34:23;;;;;;;0.63;0.63;;;;;;;;;;5055037;28;20458;-86
2024/03/07 01:36:56;;;;;;;1.60;0.68;;;;;;;;;;5035959;28;20132;-86
2024/03/07 01:39:31;;;;;;;0.20;0.10;;;;;;;;;;5041921;28;20084;-86
2024/03/07 01:41:59;;;;;;;0.20;0.08;;;;;;;;;;5041057;28;20033;-86
2024/03/07 01:44:41;;;;;;;0.20;0.00;;;;;;;;;;5041104;28;20460;-87
2024/03/07 01:47:10;;;;;;;0.40;0.27;;;;;;;;;;5039777;28;20044;-87
2024/03/07 01:49:38;;;;;;;0.20;0.10;;;;;;;;;;5033975;28;20667;-87
2024/03/07 01:52:05;;;;;;;0.20;0.17;;;;;;;;;;5042648;28;20685;-86
2024/03/07 01:54:31;;;;;;;0.20;0.13;;;;;;;;;;5035465;28;20090;-86
2024/03/07 01:57:10;;;;;;;0.20;0.20;;;;;;;;;;5037025;28;20041;-87
2024/03/07 01:59:40;;;;;;;0.20;0.10;;;;;;;;;;5048705;28;20083;-88
2024/03/07 02:02:09;;;;;;;1.70;0.70;;;;;;;;;;5049480;28;20036;-87
2024/03/07 02:04:37;;;;;;;0.20;0.10;;;;;;;;;;5039159;28;20044;-87
2024/03/07 02:07:04;;;;;;;0.45;0.45;;;;;;;;;;5040867;28;20040;-87
2024/03/07 02:09:35;;;;;;;0.20;0.10;;;;;;;;;;5036403;28;20041;-86
2024/03/07 02:12:07;;;;;;;0.20;0.10;;;;;;;;;;5039621;28;20090;-87
2024/03/07 02:14:41;;;;;;;0.20;0.10;;;;;;;;;;5042934;28;20148;-87
2024/03/07 02:17:14;;;;;;;0.30;0.20;;;;;;;;;;5042604;28;20040;-87
2024/03/07 02:19:40;;;;;;;0.20;0.10;;;;;;;;;;5051732;28;20318;-86
2024/03/07 02:22:06;;;;;;;0.20;0.00;;;;;;;;;;5036533;28;20072;-85
2024/03/07 02:24:35;;;;;;;0.68;0.35;;;;;;;;;;5039976;28;20044;-87
2024/03/07 02:27:04;;;;;;;0.60;0.60;;;;;;;;;;5037085;28;20039;-87
2024/03/07 02:29:43;;;;;;;0.20;0.20;;;;;;;;;;5053726;28;20136;-87
2024/03/07 02:32:21;;;;;;;0.20;0.20;;;;;;;;;;5043758;28;20040;-87
2024/03/07 02:35:09;;;;;;;0.20;0.10;;;;;;;;;;5051537;28;20037;-88
2024/03/07 02:37:52;;;;;;;0.20;0.10;;;;;;;;;;5037539;28;20058;-86
2024/03/07 02:40:24;;;;;;;0.20;0.10;;;;;;;;;;5041454;28;20042;-87
2024/03/07 02:42:50;;;;;;;0.20;0.10;;;;;;;;;;5041341;28;20045;-87
2024/03/07 02:45:16;;;;;;;0.20;0.10;;;;;;;;;;5034760;28;20075;-87
2024/03/07 02:47:45;;;;;;;1.20;0.35;;;;;;;;;;5036315;28;20141;-86
2024/03/07 02:50:43;;;;;;;0.20;0.10;;;;;;;;;;5037597;28;20040;-86
2024/03/07 02:53:25;;;;;;;0.20;0.10;;;;;;;;;;5036245;28;20053;-87
2024/03/07 02:56:18;;;;;;;0.20;0.10;;;;;;;;;;5040964;28;20075;-86
2024/03/07 02:58:47;;;;;;;0.98;0.65;;;;;;;;;;5035427;28;20048;-85
2024/03/07 03:01:19;;;;;;;0.43;0.20;;;;;;;;;;5038466;28;20039;-88
2024/03/07 03:03:47;;;;;;;0.20;0.20;;;;;;;;;;5038173;28;20044;-87
2024/03/07 03:06:14;;;;;;;0.20;0.17;;;;;;;;;;5041655;28;20044;-86
2024/03/07 03:11:32;;;;;;;0.20;0.10;;;;;;;;;;5041122;28;20131;-87
2024/03/07 03:14:01;;;;;;;0.20;0.10;;;;;;;;;;5037375;28;20040;-86
2024/03/07 03:16:39;;;;;;;0.20;0.00;;;;;;;;;;5049036;28;20400;-86
2024/03/07 03:19:11;;;;;;;0.20;0.10;;;;;;;;;;5036463;28;20127;-87
2024/03/07 03:21:40;;;;;;;0.20;0.00;;;;;;;;;;5037431;28;20045;-86
2024/03/07 03:24:09;;;;;;;0.20;0.13;;;;;;;;;;5058233;28;20048;-86
2024/03/07 03:29:50;;;;;;;0.20;0.10;;;;;;;;;;5037456;28;20567;-87
2024/03/07 03:32:16;;;;;;;0.20;0.10;;;;;;;;;;5035703;28;20041;-86
2024/03/07 03:34:42;;;;;;;0.20;0.10;;;;;;;;;;5037084;28;20424;-85
2024/03/07 03:37:12;;;;;;;0.20;0.10;;;;;;;;;;5038965;28;20040;-88
2024/03/07 03:40:13;;;;;;;2.05;0.38;;;;;;;;;;5055374;28;20048;-87
2024/03/07 03:42:48;;;;;;;0.20;0.15;;;;;;;;;;5051383;28;20041;-86
2024/03/07 03:45:25;;;;;;;0.20;0.10;;;;;;;;;;5043466;28;20040;-87
2024/03/07 03:47:54;;;;;;;0.20;0.00;;;;;;;;;;5051780;28;20049;-87
2024/03/07 03:50:32;;;;;;;0.20;0.10;;;;;;;;;;5031045;28;20465;-87
2024/03/07 03:53:03;;;;;;;3.03;0.45;;;;;;;;;;5053308;28;20515;-85
2024/03/07 03:55:35;;;;;;;0.80;0.80;;;;;;;;;;5038727;28;20108;-86
2024/03/07 03:58:01;;;;;;;0.20;0.10;;;;;;;;;;5042459;28;20052;-87
2024/03/07 04:00:28;;;;;;;0.20;0.10;;;;;;;;;;5036814;28;20435;-87
2024/03/07 04:02:57;;;;;;;0.35;0.28;;;;;;;;;;5038336;28;20060;-87
2024/03/07 04:05:28;;;;;;;0.50;0.50;;;;;;;;;;5038901;28;20044;-86
2024/03/07 04:07:58;;;;;;;0.25;0.20;;;;;;;;;;5042069;28;20130;-86
2024/03/07 04:10:24;;;;;;;0.45;0.35;;;;;;;;;;5038326;28;20098;-86
2024/03/07 04:12:53;;;;;;;0.20;0.10;;;;;;;;;;5037737;28;20063;-87
2024/03/07 04:15:19;;;;;;;0.25;0.25;;;;;;;;;;5052483;28;20082;-87
2024/03/07 04:17:54;;;;;;;0.50;0.20;;;;;;;;;;5035889;28;20024;-85
2024/03/07 04:20:20;;;;;;;0.20;0.10;;;;;;;;;;5033535;28;20127;-87
2024/03/07 04:23:05;;;;;;;0.20;0.10;;;;;;;;;;5040728;28;20070;-86
2024/03/07 04:25:34;;;;;;;1.15;0.30;;;;;;;;;;5034687;28;20106;-86
2024/03/07 04:28:02;;;;;;;0.20;0.10;;;;;;;;;;5038558;28;20055;-87
2024/03/07 04:30:42;;;;;;;0.20;0.10;;;;;;;;;;5034036;28;20119;-87
2024/03/07 04:33:17;;;;;;;0.20;0.10;;;;;;;;;;5039799;28;20393;-85
2024/03/07 04:35:55;;;;;;;0.20;0.00;;;;;;;;;;5036714;28;20040;-86
2024/03/07 04:38:32;;;;;;;0.30;0.30;;;;;;;;;;5054382;28;20115;-87
2024/03/07 04:41:17;;;;;;;0.20;0.20;;;;;;;;;;5037727;28;20060;-86
2024/03/07 04:43:43;;;;;;;0.20;0.10;;;;;;;;;;5047694;28;20041;-87
2024/03/07 04:46:12;;;;;;;0.20;0.00;;;;;;;;;;5039164;28;20149;-86
2024/03/07 04:48:50;;;;;;;0.20;0.00;;;;;;;;;;5052443;28;20036;-87
2024/03/07 04:51:19;;;;;;;0.32;0.32;;;;;;;;;;5038634;28;20055;-87
2024/03/07 04:53:45;;;;;;;0.20;0.00;;;;;;;;;;5034564;28;20040;-87
2024/03/07 04:56:14;;;;;;;0.20;0.10;;;;;;;;;;5039748;28;20049;-86
2024/03/07 04:58:40;;;;;;;0.45;0.32;;;;;;;;;;5033305;28;20098;-87
2024/03/07 05:01:09;;;;;;;0.20;0.03;;;;;;;;;;5035468;28;20044;-87
2024/03/07 05:03:42;;;;;;;0.20;0.10;;;;;;;;;;5034716;28;20059;-87
2024/03/07 05:06:11;;;;;;;0.20;0.00;;;;;;;;;;5045414;28;20044;-86
2024/03/07 05:08:37;;;;;;;0.38;0.32;;;;;;;;;;5045063;28;20108;-86
2024/03/07 05:11:04;;;;;;;0.20;0.10;;;;;;;;;;5048737;28;20106;-86
2024/03/07 05:13:31;;;;;;;0.20;0.17;;;;;;;;;;5037034;28;20036;-87
2024/03/07 05:16:01;;;;;;;0.60;0.50;;;;;;;;;;5041234;28;20059;-87
2024/03/07 05:18:27;;;;;;;3.40;0.85;;;;;;;;;;5052662;28;20112;-86
2024/03/07 05:21:29;;;;;;;0.20;0.10;;;;;;;;;;5035011;28;20045;-87
2024/03/07 05:23:49;;;;;;;0.20;0.05;;;;;;;;;;5054960;28;20475;-86
2024/03/07 05:26:24;;;;;;;1.95;0.60;;;;;;;;;;5041484;28;20609;-87
2024/03/07 05:28:56;;;;;;;0.22;0.13;;;;;;;;;;5055459;28;20083;-87
2024/03/07 05:31:22;;;;;;;0.20;0.10;;;;;;;;;;5050544;28;20040;-85
2024/03/07 05:33:56;;;;;;;0.20;0.10;;;;;;;;;;5038793;28;20036;-87
2024/03/07 05:36:22;;;;;;;0.20;0.20;;;;;;;;;;5035451;28;20064;-86
2024/03/07 05:38:49;;;;;;;0.20;0.10;;;;;;;;;;5053947;28;20063;-87
2024/03/07 05:41:15;;;;;;;0.20;0.08;;;;;;;;;;5031986;28;20122;-87
2024/03/07 05:43:41;;;;;;;0.20;0.00;;;;;;;;;;5036277;28;20114;-86
2024/03/07 05:46:13;;;;;;;0.85;0.55;;;;;;;;;;5043651;28;20044;-85
2024/03/07 05:48:42;;;;;;;0.20;0.10;;;;;;;;;;5054065;28;20094;-86
2024/03/07 05:51:10;;;;;;;0.20;0.13;;;;;;;;;;5043478;28;20104;-86
2024/03/07 05:53:37;;;;;;;0.20;0.10;;;;;;;;;;5043955;28;20044;-87
2024/03/07 05:56:03;;;;;;;0.20;0.10;;;;;;;;;;5043226;28;20049;-86
2024/03/07 05:58:29;;;;;;;0.20;0.10;;;;;;;;;;5054426;28;20029;-85
2024/03/07 06:00:58;;;;;;;0.20;0.10;;;;;;;;;;5051730;28;20044;-85
2024/03/07 06:03:27;;;;;;;0.20;0.10;;;;;;;;;;5037284;28;20504;-86
2024/03/07 06:05:53;;;;;;;0.40;0.20;;;;;;;;;;5042356;28;20110;-85
2024/03/07 06:08:23;;;;;;;0.20;0.20;;;;;;;;;;5038378;28;20123;-87
2024/03/07 06:10:50;;;;;;;0.20;0.10;;;;;;;;;;5055576;28;20044;-87
2024/03/07 06:13:16;;;;;;;0.20;0.10;;;;;;;;;;5064119;22;20124;-81
2024/03/07 06:15:47;;;;;;;0.20;0.10;;;;;;;;;;5063346;28;20560;-80
2024/03/07 06:18:14;;;;;;;0.20;0.05;;;;;;;;;;5060801;28;20064;-81
2024/03/07 06:20:41;;;;;;;0.20;0.20;;;;;;;;;;5049804;28;20044;-81
2024/03/07 06:23:07;;;;;;;0.20;0.10;;;;;;;;;;5059703;28;20040;-81
2024/03/07 06:25:36;;;;;;;0.20;0.10;;;;;;;;;;5037058;28;20501;-80
2024/03/07 06:28:09;;;;;;;0.20;0.10;;;;;;;;;;5032417;28;20041;-81
2024/03/07 06:30:35;;;;;;;;;;;;;;;;;;5034059;28;20217;-81
2024/03/07 06:33:01;;;;;;;0.20;0.10;;;;;;;;;;5038058;28;19941;-81
2024/03/07 06:35:27;;;;;;;0.20;0.10;;;;;;;;;;5043056;28;20602;-80
2024/03/07 06:37:53;;;;;;;0.85;0.30;;;;;;;;;;5042784;28;20026;-80
2024/03/07 06:40:22;;;;;;;0.20;0.10;;;;;;;;;;5037422;28;20049;-80
2024/03/07 06:42:49;;;;;;;0.20;0.10;;;;;;;;;;5045497;28;20051;-81
2024/03/07 06:45:15;;;;;;;0.28;0.20;;;;;;;;;;5041851;28;21101;-81
2024/03/07 06:47:42;;;;;;;0.43;0.43;;;;;;;;;;5040231;28;20022;-81
2024/03/07 06:50:09;;;;;;;0.20;0.10;;;;;;;;;;5037051;28;20038;-80
2024/03/07 06:52:35;;;;;;;0.20;0.10;;;;;;;;;;5032485;28;20053;-80
2024/03/07 06:55:06;;;;;;;0.20;0.10;;;;;;;;;;5026205;28;20033;-81
2024/03/07 06:57:32;;;;;;;0.20;0.10;;;;;;;;;;5033974;28;20041;-80
2024/03/07 06:59:58;;;;;;;0.20;0.10;;;;;;;;;;5038376;28;20033;-83
2024/03/07 07:02:24;;;;;;;0.35;0.25;;;;;;;;;;5032414;28;20041;-80
2024/03/07 07:04:50;;;;;;;0.20;0.10;;;;;;;;;;5035213;28;20103;-82
2024/03/07 07:07:16;;;;;;;4.57;0.73;;;;;;;;;;5018027;28;20037;-80
2024/03/07 07:09:42;;;;;;;0.20;0.10;;;;;;;;;;5039695;28;20042;-80
2024/03/07 07:12:08;;;;;;;0.20;0.10;;;;;;;;;;5021783;28;20100;-80
2024/03/07 07:14:36;;;;;;;0.20;0.10;;;;;;;;;;5032459;28;20041;-82
2024/03/07 07:17:02;;;;;;;0.22;0.22;;;;;;;;;;5031606;28;20038;-80
2024/03/07 07:19:28;;;;;;;0.25;0.20;;;;;;;;;;5027945;28;20099;-79
2024/03/07 07:21:54;;;;;;;0.20;0.10;;;;;;;;;;5027346;28;20057;-81
2024/03/07 07:24:23;;;;;;;0.20;0.03;;;;;;;;;;5027534;28;20509;-81
2024/03/07 07:26:50;;;;;;;0.20;0.10;;;;;;;;;;5022494;28;20046;-80
2024/03/07 07:29:16;;;;;;;0.20;0.10;;;;;;;;;;5021524;28;20042;-80
2024/03/07 07:31:42;;;;;;;0.20;0.10;;;;;;;;;;5021898;28;20064;-80
2024/03/07 07:34:09;;;;;;;0.20;0.10;;;;;;;;;;5025639;28;20041;-80
2024/03/07 07:36:35;;;;;;;0.20;0.10;;;;;;;;;;5026651;28;20050;-80
2024/03/07 07:39:02;;;;;;;0.32;0.32;;;;;;;;;;5016714;28;20033;-82
2024/03/07 07:41:29;;;;;;;0.20;0.10;;;;;;;;;;5011280;28;20116;-83
2024/03/07 07:43:56;;;;;;;0.57;0.57;;;;;;;;;;5011101;28;20048;-81
2024/03/07 07:46:23;;;;;;;0.20;0.20;;;;;;;;;;5021368;28;20080;-81
2024/03/07 07:48:50;;;;;;;0.25;0.25;;;;;;;;;;5024584;28;20049;-80
2024/03/07 07:51:16;;;;;;;1.10;1.00;;;;;;;;;;5010569;28;20057;-80
2024/03/07 07:53:44;;;;;;;0.20;0.10;;;;;;;;;;5028418;28;20100;-79
2024/03/07 07:56:10;;;;;;;0.22;0.13;;;;;;;;;;5011358;28;20087;-79
2024/03/07 07:58:37;;;;;;;0.20;0.10;;;;;;;;;;5024821;28;20049;-80
2024/03/07 08:01:03;;;;;;;0.20;0.05;;;;;;;;;;5026781;28;20041;-80
2024/03/07 08:03:30;;;;;;;0.40;0.40;;;;;;;;;;5029532;28;20042;-80
2024/03/07 08:05:56;;;;;;;0.20;0.20;;;;;;;;;;5022897;28;20049;-80
2024/03/07 08:08:22;;;;;;;0.20;0.10;;;;;;;;;;5018581;28;20050;-81
2024/03/07 08:10:48;;;;;;;0.20;0.10;;;;;;;;;;5023362;28;20046;-80
2024/03/07 08:13:14;;;;;;;0.20;0.10;;;;;;;;;;5027759;28;20597;-81
2024/03/07 08:15:41;;;;;;;0.20;0.10;;;;;;;;;;5028338;28;20053;-80
2024/03/07 08:18:10;;;;;;;0.25;0.25;;;;;;;;;;5030126;28;20045;-80
2024/03/07 08:20:36;;;;;;;0.20;0.10;;;;;;;;;;5020954;28;20034;-80
2024/03/07 08:23:02;;;;;;;0.20;0.17;;;;;;;;;;5022729;28;20043;-81
2024/03/07 08:25:29;;;;;;;0.55;0.50;;;;;;;;;;5013001;28;20049;-81
2024/03/07 08:27:57;;;;;;;0.28;0.20;;;;;;;;;;5020158;28;20037;-81
2024/03/07 08:30:23;;;;;;;0.20;0.10;;;;;;;;;;5025477;28;20069;-80
2024/03/07 08:32:52;;;;;;;0.20;0.10;;;;;;;;;;5028033;28;20050;-81
2024/03/07 08:35:18;;;;;;;0.20;0.10;;;;;;;;;;5024596;28;20057;-79
2024/03/07 08:37:45;;;;;;;0.85;0.68;;;;;;;;;;5028065;28;20065;-81
2024/03/07 08:40:18;;;;;;;0.20;0.10;;;;;;;;;;5044963;28;20017;-82
2024/03/07 08:42:45;;;;;;;0.20;0.10;;;;;;;;;;5032194;28;20042;-81
2024/03/07 08:45:11;;;;;;;0.20;0.10;;;;;;;;;;5035121;28;20502;-81
2024/03/07 08:47:38;;;;;;;0.25;0.15;;;;;;;;;;5033350;28;20049;-80
2024/03/07 08:50:08;;;;;;;0.20;0.10;;;;;;;;;;5025393;28;20037;-82
2024/03/07 08:52:39;;;;;;;0.80;0.75;;;;;;;;;;5021205;28;20053;-82
2024/03/07 08:55:06;;;;;;;0.20;0.10;;;;;;;;;;5033451;28;20079;-81
2024/03/07 08:57:33;;;;;;;0.40;0.20;;;;;;;;;;5019452;28;20464;-82
2024/03/07 09:00:01;;;;;;;0.20;0.10;;;;;;;;;;5027916;28;20468;-81
2024/03/07 09:02:27;;;;;;;0.20;0.20;;;;;;;;;;5038493;28;20072;-85
2024/03/07 09:04:53;;;;;;;0.20;0.10;;;;;;;;;;5037159;28;20045;-82
2024/03/07 09:07:20;;;;;;;0.20;0.10;;;;;;;;;;5033425;28;20552;-82
2024/03/07 09:09:46;;;;;;;0.20;0.10;;;;;;;;;;5035293;28;20042;-81
2024/03/07 09:12:12;;;;;;;0.20;0.10;;;;;;;;;;5047130;28;20044;-82
2024/03/07 09:14:39;;;;;;;0.35;0.32;;;;;;;;;;5038304;28;20141;-82
2024/03/07 09:17:05;;;;;;;0.20;0.00;;;;;;;;;;5041297;28;20029;-82
2024/03/07 09:19:32;;;;;;;0.20;0.10;;;;;;;;;;5046621;28;20077;-82
2024/03/07 09:21:58;;;;;;;0.30;0.25;;;;;;;;;;5035107;28;20030;-81
2024/03/07 09:24:24;;;;;;;0.40;0.32;;;;;;;;;;5036403;28;20065;-81
2024/03/07 09:26:55;;;;;;;0.20;0.10;;;;;;;;;;5035957;28;20045;-83
2024/03/07 09:29:22;;;;;;;0.20;0.10;;;;;;;;;;5025492;28;20045;-82
2024/03/07 09:31:51;;;;;;;0.20;0.10;;;;;;;;;;5015717;28;20037;-82
2024/03/07 09:34:20;;;;;;;0.20;0.10;;;;;;;;;;5040846;28;20141;-84
2024/03/07 09:36:47;;;;;;;0.20;0.10;;;;;;;;;;5044301;28;20049;-81
2024/03/07 09:39:13;;;;;;;0.20;0.10;;;;;;;;;;5027651;28;20029;-83
2024/03/07 09:41:42;;;;;;;0.20;0.10;;;;;;;;;;5041019;28;20053;-83
2024/03/07 09:44:17;;;;;;;0.20;0.10;;;;;;;;;;5038213;28;20039;-82
2024/03/07 09:46:46;;;;;;;0.20;0.10;;;;;;;;;;5031758;28;20042;-81
2024/03/07 09:49:12;;;;;;;0.20;0.10;;;;;;;;;;5035922;28;20108;-82
2024/03/07 09:51:38;;;;;;;0.20;0.10;;;;;;;;;;5035412;28;20022;-81
2024/03/07 09:54:04;;;;;;;0.20;0.10;;;;;;;;;;5026473;28;20168;-80
2024/03/07 09:56:37;;;;;;;0.28;0.17;;;;;;;;;;5031637;28;20472;-84
2024/03/07 09:59:13;;;;;;;0.20;0.15;;;;;;;;;;5029982;28;20042;-82
2024/03/07 10:01:40;;;;;;;0.20;0.08;;;;;;;;;;5029044;28;20049;-81
2024/03/07 10:04:11;;;;;;;0.20;0.10;;;;;;;;;;5038011;28;20091;-82
2024/03/07 10:06:41;;;;;;;0.20;0.10;;;;;;;;;;5037021;28;20081;-81
2024/03/07 10:09:13;;;;;;;0.20;0.00;;;;;;;;;;5014800;28;20060;-82
2024/03/07 10:11:41;;;;;;;0.20;0.10;;;;;;;;;;5036381;28;20049;-81
2024/03/07 10:14:10;;;;;;;0.20;0.10;;;;;;;;;;5034065;28;20417;-81
2024/03/07 10:16:36;;;;;;;0.20;0.20;;;;;;;;;;5030239;28;20046;-81
2024/03/07 10:19:05;;;;;;;0.25;0.25;;;;;;;;;;5012695;28;20030;-82
2024/03/07 10:21:36;;;;;;;0.40;0.30;;;;;;;;;;5035422;28;20104;-81
2024/03/07 10:24:09;;;;;;;0.20;0.10;;;;;;;;;;5028777;28;20346;-81
2024/03/07 10:26:35;;;;;;;0.20;0.15;;;;;;;;;;5012873;28;23825;-81
2024/03/07 10:29:02;;;;;;;0.20;0.10;;;;;;;;;;5026230;28;20044;-84
2024/03/07 10:31:28;;;;;;;0.20;0.10;;;;;;;;;;5032250;28;20037;-83
2024/03/07 10:33:58;;;;;;;0.20;0.10;;;;;;;;;;5032871;28;20038;-81
2024/03/07 10:36:25;;;;;;;0.95;0.38;;;;;;;;;;5042147;28;20103;-82
2024/03/07 10:38:55;;;;;;;0.20;0.10;;;;;;;;;;5032926;28;20101;-82
2024/03/07 10:41:24;;;;;;;0.20;0.00;;;;;;;;;;5032659;28;20049;-79
2024/03/07 10:43:50;;;;;;;0.20;0.03;;;;;;;;;;5029889;28;20049;-83
2024/03/07 10:46:17;;;;;;;0.20;0.10;;;;;;;;;;5028769;28;20048;-81
2024/03/07 10:48:46;;;;;;;0.28;0.20;;;;;;;;;;5018969;28;20036;-81
2024/03/07 10:51:25;;;;;;;0.20;0.10;;;;;;;;;;5027097;28;20037;-81
2024/03/07 10:54:07;;;;;;;0.20;0.10;;;;;;;;;;5023741;28;20044;-82
2024/03/07 10:56:56;;;;;;;0.57;0.50;;;;;;;;;;5031220;28;20122;-83
2024/03/07 10:59:23;;;;;;;0.20;0.10;;;;;;;;;;5016004;28;20052;-84
2024/03/07 11:01:54;;;;;;;0.20;0.10;;;;;;;;;;5024695;28;20149;-84
2024/03/07 11:04:22;;;;;;;0.35;0.25;;;;;;;;;;5033924;28;20037;-84
2024/03/07 11:06:49;;;;;;;0.20;0.10;;;;;;;;;;5038705;28;20046;-80
2024/03/07 11:09:22;;;;;;;0.20;0.05;;;;;;;;;;5038277;28;20133;-82
2024/03/07 11:11:49;;;;;;;0.20;0.00;;;;;;;;;;5039902;28;20041;-82
2024/03/07 11:14:16;;;;;;;0.20;0.10;;;;;;;;;;5034004;28;20048;-82
2024/03/07 11:16:43;;;;;;;0.20;0.10;;;;;;;;;;5012235;28;20118;-82
2024/03/07 11:19:28;;;;;;;0.20;0.10;;;;;;;;;;5037660;28;20128;-81
2024/03/07 11:21:57;;;;;;;0.32;0.32;;;;;;;;;;5038249;28;20083;-82
2024/03/07 11:24:24;;;;;;;0.20;0.03;;;;;;;;;;5014808;28;20052;-83
2024/03/07 11:26:52;;;;;;;0.95;0.57;;;;;;;;;;5046728;28;20049;-86
2024/03/07 11:29:36;;;;;;;0.20;0.10;;;;;;;;;;5044131;28;20018;-85
2024/03/07 11:32:02;;;;;;;0.20;0.03;;;;;;;;;;5037158;28;20041;-82
2024/03/07 11:34:30;;;;;;;0.30;0.28;;;;;;;;;;5024339;28;20041;-81
2024/03/07 11:36:59;;;;;;;0.20;0.10;;;;;;;;;;5036404;28;20067;-83
2024/03/07 11:39:47;;;;;;;0.20;0.10;;;;;;;;;;5032249;28;20285;-82
2024/03/07 11:42:31;;;;;;;0.63;0.25;;;;;;;;;;5033368;28;20064;-82
2024/03/07 11:44:57;;;;;;;0.20;0.08;;;;;;;;;;5017599;28;20037;-84
2024/03/07 11:47:24;;;;;;;0.63;0.52;;;;;;;;;;5023219;28;20083;-84
2024/03/07 11:49:52;;;;;;;0.20;0.10;;;;;;;;;;5038371;28;20048;-83
2024/03/07 11:52:18;;;;;;;0.20;0.10;;;;;;;;;;5031775;28;20502;-82
2024/03/07 11:54:47;;;;;;;0.20;0.10;;;;;;;;;;5024969;28;20045;-82
2024/03/07 11:57:15;;;;;;;0.20;0.10;;;;;;;;;;5031720;28;20033;-84
2024/03/07 11:59:45;;;;;;;0.20;0.00;;;;;;;;;;5030614;28;20478;-82
2024/03/07 12:02:15;;;;;;;0.20;0.13;;;;;;;;;;5019121;28;20545;-84
2024/03/07 12:04:44;;;;;;;0.20;0.10;;;;;;;;;;5018019;28;20091;-83
2024/03/07 12:07:10;;;;;;;0.20;0.10;;;;;;;;;;5025719;28;20044;-82
2024/03/07 12:09:42;;;;;;;0.20;0.05;;;;;;;;;;5026612;28;20079;-83
2024/03/07 12:12:09;;;;;;;0.20;0.00;;;;;;;;;;5025646;28;20166;-83
2024/03/07 12:14:35;;;;;;;2.10;0.85;;;;;;;;;;5007164;28;20390;-80
2024/03/07 12:17:03;;;;;;;0.63;0.63;;;;;;;;;;5026114;28;20117;-82
2024/03/07 12:19:31;;;;;;;0.20;0.10;;;;;;;;;;5020514;28;20044;-82
2024/03/07 12:22:00;;;;;;;0.20;0.00;;;;;;;;;;5005194;28;20038;-83
2024/03/07 12:24:26;;;;;;;0.20;0.20;;;;;;;;;;5025461;28;20412;-81
2024/03/07 12:26:54;;;;;;;0.20;0.10;;;;;;;;;;5011071;28;20042;-80
2024/03/07 12:29:26;;;;;;;0.40;0.13;;;;;;;;;;5011844;28;20227;-80
2024/03/07 12:31:52;;;;;;;0.20;0.10;;;;;;;;;;5022487;28;20045;-81
2024/03/07 12:34:18;;;;;;;0.20;0.05;;;;;;;;;;5024003;28;20087;-82
2024/03/07 12:36:47;;;;;;;3.63;0.68;;;;;;;;;;5025374;28;20536;-81
2024/03/07 12:39:25;;;;;;;0.20;0.10;;;;;;;;;;5026206;28;20095;-79
2024/03/07 12:41:52;;;;;;;0.20;0.10;;;;;;;;;;5018777;28;20038;-81
2024/03/07 12:44:22;;;;;;;0.20;0.00;;;;;;;;;;5022060;28;20052;-80
2024/03/07 12:46:58;;;;;;;0.20;0.10;;;;;;;;;;5017758;28;20042;-81
2024/03/07 12:49:27;;;;;;;0.20;0.10;;;;;;;;;;5017489;28;20049;-80
2024/03/07 12:51:59;;;;;;;0.40;0.40;;;;;;;;;;5021861;28;20061;-80
2024/03/07 12:54:27;;;;;;;0.20;0.10;;;;;;;;;;5019352;28;20049;-80
2024/03/07 12:56:53;;;;;;;0.20;0.08;;;;;;;;;;5014975;28;20037;-82
2024/03/07 12:59:23;;;;;;;0.20;0.10;;;;;;;;;;5020755;28;20092;-78
2024/03/07 13:01:49;;;;;;;0.20;0.10;;;;;;;;;;5024169;28;20037;-81
2024/03/07 13:04:15;;;;;;;0.20;0.00;;;;;;;;;;5019305;28;20057;-84
2024/03/07 13:06:46;;;;;;;0.20;0.20;;;;;;;;;;5007503;28;20460;-81
2024/03/07 13:09:13;;;;;;;0.20;0.10;;;;;;;;;;5017975;28;20041;-80
2024/03/07 13:11:47;;;;;;;0.20;0.10;;;;;;;;;;5020522;28;20081;-80
2024/03/07 13:14:13;;;;;;;0.20;0.20;;;;;;;;;;5022312;28;20037;-83
2024/03/07 13:16:42;;;;;;;0.20;0.00;;;;;;;;;;5024255;28;20050;-80
2024/03/07 13:19:11;;;;;;;0.20;0.10;;;;;;;;;;5009542;28;20181;-82
2024/03/07 13:21:37;;;;;;;0.20;0.20;;;;;;;;;;5024732;28;20506;-81
2024/03/07 13:24:05;;;;;;;0.20;0.10;;;;;;;;;;5023955;28;20045;-81
2024/03/07 13:26:31;;;;;;;0.20;0.10;;;;;;;;;;5025954;28;20048;-81
2024/03/07 13:29:01;;;;;;;0.52;0.20;;;;;;;;;;5026120;28;20041;-79
2024/03/07 13:31:28;;;;;;;0.35;0.35;;;;;;;;;;5032942;28;20042;-81
2024/03/07 13:33:54;;;;;;;0.40;0.40;;;;;;;;;;5030190;28;20060;-82
2024/03/07 13:36:24;;;;;;;0.20;0.10;;;;;;;;;;5026497;28;20064;-79
2024/03/07 13:38:51;;;;;;;0.20;0.15;;;;;;;;;;5030292;28;20037;-82
2024/03/07 13:41:19;;;;;;;0.20;0.10;;;;;;;;;;5025005;28;20116;-82
2024/03/07 13:43:45;;;;;;;0.32;0.25;;;;;;;;;;5026491;28;20104;-82
2024/03/07 13:46:14;;;;;;;0.32;0.25;;;;;;;;;;5022433;28;20037;-80
2024/03/07 13:48:42;;;;;;;0.40;0.40;;;;;;;;;;5023330;28;20426;-81
2024/03/07 13:51:09;;;;;;;0.20;0.10;;;;;;;;;;5008232;28;20087;-80
2024/03/07 13:53:47;;;;;;;0.20;0.08;;;;;;;;;;5024477;28;20076;-81
2024/03/07 13:56:13;;;;;;;0.20;0.00;;;;;;;;;;5026339;28;20044;-80
2024/03/07 13:58:53;;;;;;;0.20;0.10;;;;;;;;;;5025252;28;20037;-78
2024/03/07 14:01:22;;;;;;;0.55;0.40;;;;;;;;;;5010193;28;20240;-80
2024/03/07 14:04:03;;;;;;;0.40;0.17;;;;;;;;;;5008336;28;20037;-83
2024/03/07 14:06:38;;;;;;;0.40;0.40;;;;;;;;;;5022118;28;20045;-81
2024/03/07 14:09:21;;;;;;;0.20;0.10;;;;;;;;;;5029266;28;20038;-81
2024/03/07 14:12:06;;;;;;;0.20;0.17;;;;;;;;;;5021532;28;21666;-80
2024/03/07 14:14:35;;;;;;;1.95;0.40;;;;;;;;;;5023046;28;20481;-81
2024/03/07 14:17:12;;;;;;;0.20;0.08;;;;;;;;;;5025118;28;20452;-83
2024/03/07 14:19:38;;;;;;;0.20;0.10;;;;;;;;;;5022892;28;20115;-79
2024/03/07 14:22:13;;;;;;;0.20;0.10;;;;;;;;;;5012900;28;20637;-80
2024/03/07 14:24:58;;;;;;;0.20;0.10;;;;;;;;;;5024150;28;20049;-81
2024/03/07 14:27:30;;;;;;;0.20;0.10;;;;;;;;;;5025823;28;20603;-80
2024/03/07 14:29:56;;;;;;;;;;;;;;;;;;5013030;28;20382;-81
2024/03/07 14:32:23;;;;;;;0.20;0.03;;;;;;;;;;5008497;28;19940;-80
2024/03/07 14:34:55;;;;;;;0.20;0.10;;;;;;;;;;5007732;28;20069;-80
2024/03/07 14:37:22;;;;;;;0.22;0.15;;;;;;;;;;5021805;28;20164;-81
2024/03/07 14:39:50;;;;;;;0.20;0.20;;;;;;;;;;5010882;28;20543;-81
2024/03/07 14:42:17;;;;;;;0.65;0.43;;;;;;;;;;5020290;28;20075;-81
2024/03/07 14:44:48;;;;;;;0.20;0.10;;;;;;;;;;5009646;28;20038;-82
2024/03/07 14:47:14;;;;;;;0.20;0.05;;;;;;;;;;5022620;28;20087;-82
2024/03/07 14:49:41;;;;;;;0.55;0.55;;;;;;;;;;5010968;28;20042;-80
2024/03/07 14:52:14;;;;;;;0.30;0.30;;;;;;;;;;5024293;28;20041;-78
2024/03/07 14:54:41;;;;;;;0.28;0.15;;;;;;;;;;5009529;28;20510;-80
2024/03/07 14:57:10;;;;;;;0.20;0.10;;;;;;;;;;5004506;28;20132;-82
2024/03/07 14:59:36;;;;;;;0.20;0.10;;;;;;;;;;5007391;28;20397;-80
2024/03/07 15:02:03;;;;;;;0.20;0.10;;;;;;;;;;5007095;28;20033;-79
2024/03/07 15:04:31;;;;;;;0.20;0.20;;;;;;;;;;5016701;28;20072;-81